Time,TemperatureF,DewpointF,PressureIn,WindDirection,WindDirectionDegrees,WindSpeedMPH,WindSpeedGustMPH,Humidity,HourlyPrecipIn,Conditions,Clouds,dailyrainin,SoftwareType,DateUTC
2013-02-23 00:00:00,26.6,20.1,30.26,WNW,303,0.0,4.0,76,0.00,,---,0.00,VWS V14.01,2013-02-23 05:00:00,
2013-02-23 00:05:00,26.7,20.2,30.26,WNW,303,0.0,1.0,76,0.00,,---,0.00,VWS V14.01,2013-02-23 05:05:00,
2013-02-23 00:10:00,26.7,20.5,30.27,WNW,303,0.0,1.0,77,0.00,,---,0.00,VWS V14.01,2013-02-23 05:10:00,
2013-02-23 00:15:00,26.9,20.7,30.26,WNW,303,2.0,2.0,77,0.00,,---,0.00,VWS V14.01,2013-02-23 05:15:00,
2013-02-23 00:20:00,26.8,20.6,30.26,WNW,303,0.0,2.0,77,0.00,,---,0.00,VWS V14.01,2013-02-23 05:20:00,
2013-02-23 00:25:00,26.7,20.5,30.27,WNW,303,0.0,2.0,77,0.00,,---,0.00,VWS V14.01,2013-02-23 05:25:00,
2013-02-23 00:30:00,26.5,20.9,30.27,WNW,303,0.0,2.0,79,0.00,,---,0.00,VWS V14.01,2013-02-23 05:30:00,
2013-02-23 00:35:00,26.1,20.5,30.27,WNW,303,0.0,1.0,79,0.00,,---,0.00,VWS V14.01,2013-02-23 05:35:00,
2013-02-23 00:40:00,25.8,20.2,30.27,WNW,303,0.0,1.0,79,0.00,,---,0.00,VWS V14.01,2013-02-23 05:40:00,
2013-02-23 00:45:00,25.6,20.0,30.27,WNW,303,1.0,2.0,79,0.00,,---,0.00,VWS V14.01,2013-02-23 05:45:00,
2013-02-23 00:50:00,25.6,20.0,30.27,WNW,303,0.0,2.0,79,0.00,,---,0.00,VWS V14.01,2013-02-23 05:50:00,
2013-02-23 00:55:00,25.8,20.2,30.27,WNW,303,0.0,2.0,79,0.00,,---,0.00,VWS V14.01,2013-02-23 05:55:00,
2013-02-23 01:00:00,25.9,20.0,30.27,WNW,303,0.0,2.0,78,0.00,,---,0.00,VWS V14.01,2013-02-23 06:00:00,
2013-02-23 01:05:00,26.0,20.1,30.27,WNW,303,0.0,0.0,78,0.00,,---,0.00,VWS V14.01,2013-02-23 06:05:00,
2013-02-23 01:10:00,26.0,20.4,30.27,WNW,303,0.0,1.0,79,0.00,,---,0.00,VWS V14.01,2013-02-23 06:10:00,
2013-02-23 01:15:00,26.1,20.5,30.27,WNW,303,0.0,2.0,79,0.00,,---,0.00,VWS V14.01,2013-02-23 06:15:00,
2013-02-23 01:20:00,26.4,20.8,30.27,WNW,303,0.0,2.0,79,0.00,,---,0.00,VWS V14.01,2013-02-23 06:20:00,
2013-02-23 01:25:00,26.4,20.8,30.26,WNW,303,0.0,2.0,79,0.00,,---,0.00,VWS V14.01,2013-02-23 06:25:00,
2013-02-23 01:30:00,26.1,20.8,30.26,WNW,303,1.0,2.0,80,0.00,,---,0.00,VWS V14.01,2013-02-23 06:30:00,
2013-02-23 01:35:00,25.9,20.6,30.26,WNW,303,0.0,1.0,80,0.00,,---,0.00,VWS V14.01,2013-02-23 06:35:00,
2013-02-23 01:40:00,26.0,20.7,30.26,WNW,303,0.0,2.0,80,0.00,,---,0.00,VWS V14.01,2013-02-23 06:40:00,
2013-02-23 01:45:00,26.2,20.9,30.26,WNW,303,0.0,2.0,80,0.00,,---,0.00,VWS V14.01,2013-02-23 06:45:00,
2013-02-23 01:50:00,26.4,21.1,30.26,WNW,303,0.0,2.0,80,0.00,,---,0.00,VWS V14.01,2013-02-23 06:50:00,
2013-02-23 01:55:00,26.6,21.3,30.26,WNW,303,0.0,2.0,80,0.00,,---,0.00,VWS V14.01,2013-02-23 06:55:00,
2013-02-23 02:00:00,26.6,21.3,30.26,WNW,303,0.0,2.0,80,0.00,,---,0.00,VWS V14.01,2013-02-23 07:00:00,
2013-02-23 02:05:00,26.6,21.3,30.25,WNW,303,0.0,0.0,80,0.00,,---,0.00,VWS V14.01,2013-02-23 07:05:00,
2013-02-23 02:10:00,26.6,21.3,30.25,WNW,303,3.0,3.0,80,0.00,,---,0.00,VWS V14.01,2013-02-23 07:10:00,
2013-02-23 02:15:00,26.7,21.4,30.24,NW,311,1.0,4.0,80,0.00,,---,0.00,VWS V14.01,2013-02-23 07:15:00,
2013-02-23 02:20:00,26.8,21.5,30.24,NNW,332,1.0,4.0,80,0.00,,---,0.00,VWS V14.01,2013-02-23 07:20:00,
2013-02-23 02:25:00,26.8,21.5,30.24,WNW,285,2.0,4.0,80,0.00,,---,0.00,VWS V14.01,2013-02-23 07:25:00,
2013-02-23 02:30:00,26.8,21.5,30.23,WNW,297,0.0,5.0,80,0.00,,---,0.00,VWS V14.01,2013-02-23 07:30:00,
2013-02-23 02:35:00,26.7,21.4,30.23,NW,321,1.0,2.0,80,0.00,,---,0.00,VWS V14.01,2013-02-23 07:35:00,
2013-02-23 02:40:00,26.5,21.2,30.23,NW,314,1.0,4.0,80,0.00,,---,0.00,VWS V14.01,2013-02-23 07:40:00,
2013-02-23 02:45:00,26.4,21.1,30.23,WNW,286,0.0,4.0,80,0.00,,---,0.00,VWS V14.01,2013-02-23 07:45:00,
2013-02-23 02:50:00,26.2,20.9,30.23,WNW,286,1.0,4.0,80,0.00,,---,0.00,VWS V14.01,2013-02-23 07:50:00,
2013-02-23 02:55:00,26.2,21.2,30.23,WNW,286,1.0,4.0,81,0.00,,---,0.00,VWS V14.01,2013-02-23 07:55:00,
2013-02-23 03:00:00,25.9,20.9,30.23,WNW,286,2.0,4.0,81,0.00,,---,0.00,VWS V14.01,2013-02-23 08:00:00,
2013-02-23 03:05:00,25.5,20.5,30.23,WNW,286,0.0,0.0,81,0.00,,---,0.00,VWS V14.01,2013-02-23 08:05:00,
2013-02-23 03:10:00,25.2,20.5,30.23,WNW,286,0.0,1.0,82,0.00,,---,0.00,VWS V14.01,2013-02-23 08:10:00,
2013-02-23 03:15:00,24.7,20.0,30.23,WNW,286,0.0,1.0,82,0.00,,---,0.00,VWS V14.01,2013-02-23 08:15:00,
2013-02-23 03:20:00,24.1,19.4,30.23,WNW,286,0.0,1.0,82,0.00,,---,0.00,VWS V14.01,2013-02-23 08:20:00,
2013-02-23 03:25:00,23.9,19.5,30.23,WNW,286,0.0,2.0,83,0.00,,---,0.00,VWS V14.01,2013-02-23 08:25:00,
2013-02-23 03:30:00,23.9,19.8,30.23,WNW,286,0.0,2.0,84,0.00,,---,0.00,VWS V14.01,2013-02-23 08:30:00,
2013-02-23 03:35:00,23.8,19.7,30.23,WNW,286,0.0,0.0,84,0.00,,---,0.00,VWS V14.01,2013-02-23 08:35:00,
2013-02-23 03:40:00,24.0,19.9,30.22,WNW,286,2.0,2.0,84,0.00,,---,0.00,VWS V14.01,2013-02-23 08:40:00,
2013-02-23 03:45:00,24.0,19.9,30.22,WNW,286,0.0,2.0,84,0.00,,---,0.00,VWS V14.01,2013-02-23 08:45:00,
2013-02-23 03:50:00,23.9,19.8,30.22,WNW,286,1.0,2.0,84,0.00,,---,0.00,VWS V14.01,2013-02-23 08:50:00,
2013-02-23 03:55:00,23.9,19.8,30.22,WNW,286,0.0,2.0,84,0.00,,---,0.00,VWS V14.01,2013-02-23 08:55:00,
2013-02-23 04:00:00,24.0,19.9,30.22,WNW,286,0.0,2.0,84,0.00,,---,0.00,VWS V14.01,2013-02-23 09:00:00,
2013-02-23 04:05:00,23.9,19.8,30.22,WNW,286,0.0,1.0,84,0.00,,---,0.00,VWS V14.01,2013-02-23 09:05:00,
2013-02-23 04:10:00,24.1,20.2,30.21,WNW,286,0.0,1.0,85,0.00,,---,0.00,VWS V14.01,2013-02-23 09:10:00,
2013-02-23 04:15:00,24.4,20.5,30.21,WNW,286,0.0,1.0,85,0.00,,---,0.00,VWS V14.01,2013-02-23 09:15:00,
2013-02-23 04:20:00,24.6,20.7,30.22,WNW,286,0.0,1.0,85,0.00,,---,0.00,VWS V14.01,2013-02-23 09:20:00,
2013-02-23 04:25:00,24.7,20.6,30.22,WNW,286,1.0,2.0,84,0.00,,---,0.00,VWS V14.01,2013-02-23 09:25:00,
2013-02-23 04:30:00,24.8,20.7,30.22,WNW,286,0.0,3.0,84,0.00,,---,0.00,VWS V14.01,2013-02-23 09:30:00,
2013-02-23 04:35:00,24.8,20.4,30.22,WNW,286,0.0,1.0,83,0.00,,---,0.00,VWS V14.01,2013-02-23 09:35:00,
2013-02-23 04:40:00,24.9,20.5,30.22,WNW,286,0.0,2.0,83,0.00,,---,0.00,VWS V14.01,2013-02-23 09:40:00,
2013-02-23 04:45:00,24.9,20.5,30.22,WNW,286,0.0,2.0,83,0.00,,---,0.00,VWS V14.01,2013-02-23 09:45:00,
2013-02-23 04:50:00,24.9,20.5,30.22,WNW,286,2.0,2.0,83,0.00,,---,0.00,VWS V14.01,2013-02-23 09:50:00,
2013-02-23 04:55:00,25.0,20.6,30.22,WNW,286,2.0,3.0,83,0.00,,---,0.00,VWS V14.01,2013-02-23 09:55:00,
2013-02-23 05:00:00,25.1,20.7,30.22,WNW,286,1.0,3.0,83,0.00,,---,0.00,VWS V14.01,2013-02-23 10:00:00,
2013-02-23 05:05:00,25.2,20.8,30.22,WNW,286,2.0,2.0,83,0.00,,---,0.00,VWS V14.01,2013-02-23 10:05:00,
2013-02-23 05:10:00,25.3,20.9,30.22,WNW,286,1.0,2.0,83,0.00,,---,0.00,VWS V14.01,2013-02-23 10:10:00,
2013-02-23 05:15:00,25.3,20.9,30.22,WNW,286,0.0,2.0,83,0.00,,---,0.00,VWS V14.01,2013-02-23 10:15:00,
2013-02-23 05:20:00,25.5,21.1,30.22,WNW,286,0.0,2.0,83,0.00,,---,0.00,VWS V14.01,2013-02-23 10:20:00,
2013-02-23 05:25:00,25.7,21.3,30.22,WNW,286,0.0,2.0,83,0.00,,---,0.00,VWS V14.01,2013-02-23 10:25:00,
2013-02-23 05:30:00,25.9,21.5,30.22,WNW,286,0.0,2.0,83,0.00,,---,0.00,VWS V14.01,2013-02-23 10:30:00,
2013-02-23 05:35:00,26.1,21.6,30.21,WNW,286,0.0,0.0,83,0.00,,---,0.00,VWS V14.01,2013-02-23 10:35:00,
2013-02-23 05:40:00,26.4,21.7,30.22,WNW,286,0.0,0.0,82,0.00,,---,0.00,VWS V14.01,2013-02-23 10:40:00,
2013-02-23 05:45:00,26.6,21.9,30.22,WNW,286,0.0,1.0,82,0.00,,---,0.00,VWS V14.01,2013-02-23 10:45:00,
2013-02-23 05:50:00,26.8,22.0,30.22,WNW,286,0.0,1.0,82,0.00,,---,0.00,VWS V14.01,2013-02-23 10:50:00,
2013-02-23 05:55:00,26.9,22.1,30.21,WNW,286,0.0,1.0,82,0.00,,---,0.00,VWS V14.01,2013-02-23 10:55:00,
2013-02-23 06:00:00,27.1,22.4,30.22,WNW,286,0.0,1.0,82,0.00,,---,0.00,VWS V14.01,2013-02-23 11:00:00,
2013-02-23 06:05:00,27.3,22.5,30.22,WNW,286,0.0,0.0,82,0.00,,---,0.00,VWS V14.01,2013-02-23 11:05:00,
2013-02-23 06:10:00,27.4,22.6,30.22,WNW,286,1.0,2.0,82,0.00,,---,0.00,VWS V14.01,2013-02-23 11:10:00,
2013-02-23 06:15:00,27.5,22.5,30.22,WNW,286,0.0,2.0,81,0.00,,---,0.00,VWS V14.01,2013-02-23 11:15:00,
2013-02-23 06:20:00,27.5,22.7,30.21,NW,314,2.0,3.0,82,0.00,,---,0.00,VWS V14.01,2013-02-23 11:20:00,
2013-02-23 06:25:00,27.5,23.0,30.21,WNW,298,1.0,3.0,83,0.00,,---,0.00,VWS V14.01,2013-02-23 11:25:00,
2013-02-23 06:30:00,27.4,22.9,30.21,North,9,0.0,4.0,83,0.00,,---,0.00,VWS V14.01,2013-02-23 11:30:00,
2013-02-23 06:35:00,27.5,23.0,30.21,NW,316,2.0,3.0,83,0.00,,---,0.00,VWS V14.01,2013-02-23 11:35:00,
2013-02-23 06:40:00,27.6,23.1,30.21,NNW,333,0.0,6.0,83,0.00,,---,0.00,VWS V14.01,2013-02-23 11:40:00,
2013-02-23 06:45:00,27.7,23.5,30.21,NNW,344,1.0,6.0,84,0.00,,---,0.00,VWS V14.01,2013-02-23 11:45:00,
2013-02-23 06:50:00,27.7,23.5,30.21,WNW,303,1.0,6.0,84,0.00,,---,0.00,VWS V14.01,2013-02-23 11:50:00,
2013-02-23 06:55:00,27.8,23.6,30.21,NW,314,2.0,6.0,84,0.00,,---,0.00,VWS V14.01,2013-02-23 11:55:00,
2013-02-23 07:00:00,27.8,23.6,30.21,NW,322,1.0,6.0,84,0.00,,---,0.00,VWS V14.01,2013-02-23 12:00:00,
2013-02-23 07:05:00,27.9,23.7,30.22,WNW,293,0.0,0.0,84,0.00,,---,0.00,VWS V14.01,2013-02-23 12:05:00,
2013-02-23 07:10:00,28.0,24.1,30.22,NW,307,3.0,4.0,85,0.00,,---,0.00,VWS V14.01,2013-02-23 12:10:00,
2013-02-23 07:15:00,28.0,23.8,30.22,NNW,338,1.0,4.0,84,0.00,,---,0.00,VWS V14.01,2013-02-23 12:15:00,
2013-02-23 07:20:00,28.1,23.9,30.21,WNW,286,0.0,4.0,84,0.00,,---,0.00,VWS V14.01,2013-02-23 12:20:00,
2013-02-23 07:25:00,28.1,24.2,30.21,NW,322,1.0,4.0,85,0.00,,---,0.00,VWS V14.01,2013-02-23 12:25:00,
2013-02-23 07:30:00,28.2,24.3,30.22,NW,322,0.0,4.0,85,0.00,,---,0.00,VWS V14.01,2013-02-23 12:30:00,
2013-02-23 07:35:00,28.2,24.3,30.21,NW,325,0.0,1.0,85,0.00,,---,0.00,VWS V14.01,2013-02-23 12:35:00,
2013-02-23 07:40:00,28.3,24.4,30.21,WNW,296,1.0,8.0,85,0.00,,---,0.00,VWS V14.01,2013-02-23 12:40:00,
2013-02-23 07:45:00,28.3,24.4,30.21,West,279,2.0,8.0,85,0.00,,---,0.00,VWS V14.01,2013-02-23 12:45:00,
2013-02-23 07:50:00,28.4,24.5,30.21,WNW,302,3.0,8.0,85,0.00,,---,0.00,VWS V14.01,2013-02-23 12:50:00,
2013-02-23 07:55:00,28.5,24.6,30.21,NW,326,0.0,8.0,85,0.00,,---,0.00,VWS V14.01,2013-02-23 12:55:00,
2013-02-23 08:00:00,28.6,24.7,30.21,WNW,302,1.0,8.0,85,0.00,,---,0.00,VWS V14.01,2013-02-23 13:00:00,
2013-02-23 08:05:00,28.7,24.8,30.20,NW,306,0.0,2.0,85,0.00,,---,0.00,VWS V14.01,2013-02-23 13:05:00,
2013-02-23 08:10:00,28.8,24.9,30.20,NW,321,2.0,4.0,85,0.00,,---,0.00,VWS V14.01,2013-02-23 13:10:00,
2013-02-23 08:15:00,28.9,25.0,30.20,WNW,299,0.0,5.0,85,0.00,,---,0.00,VWS V14.01,2013-02-23 13:15:00,
2013-02-23 08:20:00,28.9,25.2,30.20,NW,314,3.0,5.0,86,0.00,,---,0.00,VWS V14.01,2013-02-23 13:20:00,
2013-02-23 08:25:00,29.0,25.4,30.20,WNW,284,1.0,5.0,86,0.00,,---,0.00,VWS V14.01,2013-02-23 13:25:00,
2013-02-23 08:30:00,29.0,25.4,30.20,WNW,282,2.0,5.0,86,0.00,,---,0.00,VWS V14.01,2013-02-23 13:30:00,
2013-02-23 08:35:00,29.1,25.4,30.20,WNW,294,1.0,3.0,86,0.00,,---,0.00,VWS V14.01,2013-02-23 13:35:00,
2013-02-23 08:40:00,29.2,25.5,30.20,North,350,2.0,5.0,86,0.00,,---,0.00,VWS V14.01,2013-02-23 13:40:00,
2013-02-23 08:45:00,29.4,25.7,30.20,WNW,298,1.0,5.0,86,0.00,,---,0.00,VWS V14.01,2013-02-23 13:45:00,
2013-02-23 08:50:00,29.6,25.9,30.19,NNW,337,0.0,5.0,86,0.00,,---,0.00,VWS V14.01,2013-02-23 13:50:00,
2013-02-23 08:55:00,29.8,26.1,30.19,WNW,302,0.0,5.0,86,0.00,,---,0.00,VWS V14.01,2013-02-23 13:55:00,
2013-02-23 09:00:00,30.0,26.3,30.19,NNW,331,2.0,5.0,86,0.00,,---,0.00,VWS V14.01,2013-02-23 14:00:00,
2013-02-23 09:05:00,30.2,26.5,30.19,West,261,1.0,2.0,86,0.00,,---,0.00,VWS V14.01,2013-02-23 14:05:00,
2013-02-23 09:10:00,30.4,26.4,30.19,NW,310,1.0,4.0,85,0.00,,---,0.00,VWS V14.01,2013-02-23 14:10:00,
2013-02-23 09:15:00,30.5,26.5,30.19,NW,313,0.0,4.0,85,0.00,,---,0.00,VWS V14.01,2013-02-23 14:15:00,
2013-02-23 09:20:00,30.5,26.5,30.19,WNW,287,2.0,4.0,85,0.00,,---,0.00,VWS V14.01,2013-02-23 14:20:00,
2013-02-23 09:25:00,30.5,26.5,30.19,West,270,2.0,4.0,85,0.00,,---,0.00,VWS V14.01,2013-02-23 14:25:00,
2013-02-23 09:30:00,30.5,26.5,30.19,NW,311,1.0,5.0,85,0.00,,---,0.00,VWS V14.01,2013-02-23 14:30:00,
2013-02-23 09:35:00,30.5,26.5,30.19,NNW,340,2.0,3.0,85,0.00,,---,0.00,VWS V14.01,2013-02-23 14:35:00,
2013-02-23 09:40:00,30.7,26.7,30.18,WNW,299,2.0,5.0,85,0.00,,---,0.00,VWS V14.01,2013-02-23 14:40:00,
2013-02-23 09:45:00,30.8,26.8,30.18,WNW,289,4.0,5.0,85,0.00,,---,0.00,VWS V14.01,2013-02-23 14:45:00,
2013-02-23 09:50:00,31.0,27.0,30.18,WNW,295,2.0,5.0,85,0.00,,---,0.00,VWS V14.01,2013-02-23 14:50:00,
2013-02-23 09:55:00,31.2,27.2,30.18,WNW,289,3.0,5.0,85,0.00,,---,0.00,VWS V14.01,2013-02-23 14:55:00,
2013-02-23 10:00:00,31.3,27.0,30.18,NW,325,2.0,5.0,84,0.00,,---,0.00,VWS V14.01,2013-02-23 15:00:00,
2013-02-23 10:05:00,31.3,27.0,30.18,West,275,2.0,6.0,84,0.00,,---,0.00,VWS V14.01,2013-02-23 15:05:00,
2013-02-23 10:10:00,31.4,27.1,30.18,West,265,1.0,6.0,84,0.00,,---,0.00,VWS V14.01,2013-02-23 15:10:00,
2013-02-23 10:15:00,31.6,27.3,30.18,NNW,344,1.0,6.0,84,0.00,,---,0.00,VWS V14.01,2013-02-23 15:15:00,
2013-02-23 10:20:00,31.8,27.5,30.18,WNW,298,3.0,6.0,84,0.00,,---,0.00,VWS V14.01,2013-02-23 15:20:00,
2013-02-23 10:25:00,32.0,27.4,30.18,NW,310,0.0,6.0,83,0.00,,---,0.00,VWS V14.01,2013-02-23 15:25:00,
2013-02-23 10:30:00,32.2,27.6,30.18,NNW,341,1.0,6.0,83,0.00,,---,0.00,VWS V14.01,2013-02-23 15:30:00,
2013-02-23 10:35:00,32.4,27.8,30.18,WNW,298,2.0,2.0,83,0.00,,---,0.00,VWS V14.01,2013-02-23 15:35:00,
2013-02-23 10:40:00,32.8,28.2,30.17,WNW,298,0.0,2.0,83,0.00,,---,0.00,VWS V14.01,2013-02-23 15:40:00,
2013-02-23 10:45:00,33.1,28.2,30.17,NW,325,0.0,3.0,82,0.00,,---,0.00,VWS V14.01,2013-02-23 15:45:00,
2013-02-23 10:50:00,33.3,28.1,30.17,NNW,331,0.0,3.0,81,0.00,,---,0.00,VWS V14.01,2013-02-23 15:50:00,
2013-02-23 10:55:00,33.6,28.7,30.17,NNW,331,0.0,3.0,82,0.00,,---,0.00,VWS V14.01,2013-02-23 15:55:00,
2013-02-23 11:00:00,33.9,28.4,30.17,NW,319,0.0,4.0,80,0.00,,---,0.00,VWS V14.01,2013-02-23 16:00:00,
2013-02-23 11:05:00,34.1,28.6,30.16,NNW,343,2.0,2.0,80,0.00,,---,0.00,VWS V14.01,2013-02-23 16:05:00,
2013-02-23 11:10:00,34.4,28.6,30.16,NNW,344,4.0,6.0,79,0.00,,---,0.00,VWS V14.01,2013-02-23 16:10:00,
2013-02-23 11:15:00,34.6,28.5,30.16,NW,311,3.0,6.0,78,0.00,,---,0.00,VWS V14.01,2013-02-23 16:15:00,
2013-02-23 11:20:00,34.8,28.3,30.16,North,360,2.0,8.0,77,0.00,,---,0.00,VWS V14.01,2013-02-23 16:20:00,
2013-02-23 11:25:00,35.0,28.2,30.16,NE,53,1.0,10.0,76,0.00,,---,0.00,VWS V14.01,2013-02-23 16:25:00,
2013-02-23 11:30:00,35.0,28.2,30.16,ESE,110,4.0,10.0,76,0.00,,---,0.00,VWS V14.01,2013-02-23 16:30:00,
2013-02-23 11:35:00,35.1,28.3,30.16,SW,229,1.0,1.0,76,0.00,,---,0.00,VWS V14.01,2013-02-23 16:35:00,
2013-02-23 11:40:00,35.1,28.0,30.15,North,355,2.0,10.0,75,0.00,,---,0.00,VWS V14.01,2013-02-23 16:40:00,
2013-02-23 11:45:00,35.1,28.0,30.15,North,360,4.0,12.0,75,0.00,,---,0.00,VWS V14.01,2013-02-23 16:45:00,
2013-02-23 11:50:00,35.2,28.1,30.15,NNW,332,5.0,12.0,75,0.00,,---,0.00,VWS V14.01,2013-02-23 16:50:00,
2013-02-23 11:55:00,35.4,28.0,30.15,NNE,13,5.0,12.0,74,0.00,,---,0.00,VWS V14.01,2013-02-23 16:55:00,
2013-02-23 12:00:00,35.3,28.2,30.15,NNE,30,6.0,12.0,75,0.00,,---,0.00,VWS V14.01,2013-02-23 17:00:00,
2013-02-23 12:05:00,35.2,28.1,30.15,NNE,20,4.0,6.0,75,0.00,,---,0.00,VWS V14.01,2013-02-23 17:05:00,
2013-02-23 12:10:00,34.9,27.8,30.14,NNW,341,7.0,13.0,75,0.00,,---,0.00,VWS V14.01,2013-02-23 17:10:00,
2013-02-23 12:15:00,34.7,27.9,30.14,NNW,336,7.0,13.0,76,0.00,,---,0.00,VWS V14.01,2013-02-23 17:15:00,
2013-02-23 12:20:00,34.7,27.9,30.14,WSW,245,3.0,13.0,76,0.00,,---,0.00,VWS V14.01,2013-02-23 17:20:00,
2013-02-23 12:25:00,34.7,27.9,30.14,NNE,17,7.0,13.0,76,0.00,,---,0.00,VWS V14.01,2013-02-23 17:25:00,
2013-02-23 12:30:00,34.7,27.9,30.14,NNW,344,2.0,13.0,76,0.00,,---,0.00,VWS V14.01,2013-02-23 17:30:00,
2013-02-23 12:35:00,34.9,28.1,30.14,SE,137,0.0,0.0,76,0.00,,---,0.00,VWS V14.01,2013-02-23 17:35:00,
2013-02-23 12:40:00,34.9,28.1,30.13,NNE,12,0.0,9.0,76,0.00,,---,0.00,VWS V14.01,2013-02-23 17:40:00,
2013-02-23 12:45:00,34.9,28.1,30.13,NW,322,3.0,9.0,76,0.00,,---,0.00,VWS V14.01,2013-02-23 17:45:00,
2013-02-23 12:50:00,34.8,28.0,30.13,North,355,2.0,9.0,76,0.00,,---,0.00,VWS V14.01,2013-02-23 17:50:00,
2013-02-23 12:55:00,34.5,27.7,30.13,North,5,2.0,9.0,76,0.00,,---,0.00,VWS V14.01,2013-02-23 17:55:00,
2013-02-23 13:00:00,34.5,28.0,30.13,East,80,5.0,9.0,77,0.00,,---,0.00,VWS V14.01,2013-02-23 18:00:00,
2013-02-23 13:05:00,34.3,27.9,30.13,NNE,13,1.0,1.0,77,0.00,,---,0.00,VWS V14.01,2013-02-23 18:05:00,
2013-02-23 13:10:00,34.3,27.9,30.13,NNW,338,3.0,6.0,77,0.00,,---,0.00,VWS V14.01,2013-02-23 18:10:00,
2013-02-23 13:15:00,34.4,28.3,30.12,ESE,106,0.0,6.0,78,0.00,,---,0.00,VWS V14.01,2013-02-23 18:15:00,
2013-02-23 13:20:00,34.5,28.0,30.13,ENE,66,0.0,6.0,77,0.00,,---,0.00,VWS V14.01,2013-02-23 18:20:00,
2013-02-23 13:25:00,34.5,28.0,30.13,NW,321,3.0,6.0,77,0.00,,---,0.00,VWS V14.01,2013-02-23 18:25:00,
2013-02-23 13:30:00,34.6,28.1,30.12,NNW,335,1.0,6.0,77,0.00,,---,0.00,VWS V14.01,2013-02-23 18:30:00,
2013-02-23 13:35:00,34.6,28.1,30.12,NW,312,3.0,5.0,77,0.00,,---,0.00,VWS V14.01,2013-02-23 18:35:00,
2013-02-23 13:40:00,34.5,28.4,30.12,West,260,2.0,8.0,78,0.00,,---,0.00,VWS V14.01,2013-02-23 18:40:00,
2013-02-23 13:45:00,34.5,28.4,30.12,North,5,4.0,8.0,78,0.00,,---,0.00,VWS V14.01,2013-02-23 18:45:00,
2013-02-23 13:50:00,34.3,28.2,30.12,NNW,340,3.0,8.0,78,0.00,,---,0.00,VWS V14.01,2013-02-23 18:50:00,
2013-02-23 13:55:00,34.2,27.8,30.12,NNE,29,3.0,8.0,77,0.00,,---,0.00,VWS V14.01,2013-02-23 18:55:00,
2013-02-23 14:00:00,34.1,28.0,30.12,NW,326,0.0,8.0,78,0.00,,---,0.00,VWS V14.01,2013-02-23 19:00:00,
2013-02-23 14:05:00,34.1,28.0,30.11,WNW,294,1.0,3.0,78,0.00,,---,0.00,VWS V14.01,2013-02-23 19:05:00,
2013-02-23 14:10:00,34.2,28.1,30.11,NE,53,3.0,6.0,78,0.00,,---,0.00,VWS V14.01,2013-02-23 19:10:00,
2013-02-23 14:15:00,34.2,28.1,30.11,North,355,2.0,6.0,78,0.00,,---,0.00,VWS V14.01,2013-02-23 19:15:00,
2013-02-23 14:20:00,34.2,27.8,30.11,East,83,1.0,6.0,77,0.00,,---,0.00,VWS V14.01,2013-02-23 19:20:00,
2013-02-23 14:25:00,34.1,27.7,30.11,WNW,290,0.0,8.0,77,0.00,,---,0.00,VWS V14.01,2013-02-23 19:25:00,
2013-02-23 14:30:00,34.1,27.7,30.11,North,11,1.0,8.0,77,0.00,,---,0.00,VWS V14.01,2013-02-23 19:30:00,
2013-02-23 14:35:00,34.1,28.0,30.12,NE,53,3.0,3.0,78,0.00,,---,0.00,VWS V14.01,2013-02-23 19:35:00,
2013-02-23 14:40:00,34.1,27.7,30.12,NNW,342,0.0,8.0,77,0.00,,---,0.00,VWS V14.01,2013-02-23 19:40:00,
2013-02-23 14:45:00,34.0,27.9,30.12,North,355,3.0,8.0,78,0.00,,---,0.00,VWS V14.01,2013-02-23 19:45:00,
2013-02-23 14:50:00,33.9,27.8,30.12,NE,34,3.0,8.0,78,0.00,,---,0.00,VWS V14.01,2013-02-23 19:50:00,
2013-02-23 14:55:00,33.8,27.7,30.12,North,360,7.0,8.0,78,0.00,,---,0.00,VWS V14.01,2013-02-23 19:55:00,
2013-02-23 15:00:00,33.8,28.0,30.11,West,261,2.0,8.0,79,0.00,,---,0.00,VWS V14.01,2013-02-23 20:00:00,
2013-02-23 15:05:00,33.7,27.6,30.11,NNE,13,0.0,1.0,78,0.00,,---,0.00,VWS V14.01,2013-02-23 20:05:00,
2013-02-23 15:10:00,33.8,28.0,30.11,NNW,345,2.0,10.0,79,0.00,,---,0.00,VWS V14.01,2013-02-23 20:10:00,
2013-02-23 15:15:00,33.8,28.0,30.11,NE,40,2.0,10.0,79,0.00,,---,0.00,VWS V14.01,2013-02-23 20:15:00,
2013-02-23 15:20:00,33.8,28.6,30.10,SW,223,1.0,10.0,81,0.00,,---,0.00,VWS V14.01,2013-02-23 20:20:00,
2013-02-23 15:25:00,33.8,28.6,30.10,ESE,103,1.0,10.0,81,0.00,,---,0.00,VWS V14.01,2013-02-23 20:25:00,
2013-02-23 15:30:00,33.8,28.6,30.10,East,79,11.0,11.0,81,0.00,,---,0.00,VWS V14.01,2013-02-23 20:30:00,
2013-02-23 15:35:00,33.8,28.9,30.10,ENE,63,0.0,11.0,82,0.00,,---,0.00,VWS V14.01,2013-02-23 20:35:00,
2013-02-23 15:40:00,33.7,28.8,30.09,NNW,340,2.0,8.0,82,0.00,,---,0.00,VWS V14.01,2013-02-23 20:40:00,
2013-02-23 15:45:00,33.6,28.7,30.09,WNW,296,0.0,8.0,82,0.00,,---,0.00,VWS V14.01,2013-02-23 20:45:00,
2013-02-23 15:50:00,33.6,28.7,30.09,NE,55,3.0,8.0,82,0.00,,---,0.00,VWS V14.01,2013-02-23 20:50:00,
2013-02-23 15:55:00,33.5,28.6,30.08,NNE,25,1.0,11.0,82,0.00,,---,0.00,VWS V14.01,2013-02-23 20:55:00,
2013-02-23 16:00:00,33.5,28.6,30.08,NNE,20,2.0,13.0,82,0.00,,---,0.00,VWS V14.01,2013-02-23 21:00:00,
2013-02-23 16:05:00,33.4,28.5,30.08,West,281,3.0,4.0,82,0.00,,---,0.00,VWS V14.01,2013-02-23 21:05:00,
2013-02-23 16:10:00,33.4,28.5,30.08,ENE,57,2.0,10.0,82,0.00,,---,0.00,VWS V14.01,2013-02-23 21:10:00,
2013-02-23 16:15:00,33.4,28.5,30.08,NW,321,2.0,10.0,82,0.00,,---,0.00,VWS V14.01,2013-02-23 21:15:00,
2013-02-23 16:20:00,33.4,28.5,30.07,NNW,330,0.0,10.0,82,0.00,,---,0.00,VWS V14.01,2013-02-23 21:20:00,
2013-02-23 16:25:00,33.5,28.3,30.08,NW,323,5.0,10.0,81,0.00,,---,0.00,VWS V14.01,2013-02-23 21:25:00,
2013-02-23 16:30:00,33.5,28.3,30.07,NNE,22,5.0,10.0,81,0.00,,---,0.00,VWS V14.01,2013-02-23 21:30:00,
2013-02-23 16:35:00,33.4,28.2,30.08,East,86,2.0,2.0,81,0.00,,---,0.00,VWS V14.01,2013-02-23 21:35:00,
2013-02-23 16:40:00,33.4,28.5,30.08,NW,322,2.0,7.0,82,0.00,,---,0.00,VWS V14.01,2013-02-23 21:40:00,
2013-02-23 16:45:00,33.4,28.5,30.08,ESE,103,0.0,10.0,82,0.00,,---,0.00,VWS V14.01,2013-02-23 21:45:00,
2013-02-23 16:50:00,33.3,28.4,30.08,NNE,21,0.0,10.0,82,0.00,,---,0.00,VWS V14.01,2013-02-23 21:50:00,
2013-02-23 16:55:00,33.2,28.3,30.08,NE,51,2.0,10.0,82,0.00,,---,0.00,VWS V14.01,2013-02-23 21:55:00,
2013-02-23 17:00:00,33.2,28.3,30.08,NNE,27,0.0,10.0,82,0.00,,---,0.00,VWS V14.01,2013-02-23 22:00:00,
2013-02-23 17:05:00,33.1,28.2,30.08,NNE,30,5.0,5.0,82,0.00,,---,0.00,VWS V14.01,2013-02-23 22:05:00,
2013-02-23 17:10:00,33.1,28.2,30.07,North,5,2.0,10.0,82,0.00,,---,0.00,VWS V14.01,2013-02-23 22:10:00,
2013-02-23 17:15:00,33.0,28.1,30.07,ENE,76,1.0,10.0,82,0.00,,---,0.00,VWS V14.01,2013-02-23 22:15:00,
2013-02-23 17:20:00,33.0,28.4,30.07,ESE,105,1.0,10.0,83,0.00,,---,0.00,VWS V14.01,2013-02-23 22:20:00,
2013-02-23 17:25:00,33.0,28.4,30.07,North,9,1.0,10.0,83,0.00,,---,0.00,VWS V14.01,2013-02-23 22:25:00,
2013-02-23 17:30:00,32.9,28.3,30.06,WNW,294,1.0,10.0,83,0.00,,---,0.00,VWS V14.01,2013-02-23 22:30:00,
2013-02-23 17:35:00,32.9,28.3,30.06,North,360,1.0,2.0,83,0.00,,---,0.00,VWS V14.01,2013-02-23 22:35:00,
2013-02-23 17:40:00,32.9,28.3,30.06,ENE,67,2.0,9.0,83,0.00,,---,0.00,VWS V14.01,2013-02-23 22:40:00,
2013-02-23 17:45:00,32.9,28.3,30.06,ENE,71,3.0,9.0,83,0.00,,---,0.00,VWS V14.01,2013-02-23 22:45:00,
2013-02-23 17:50:00,32.9,28.3,30.05,North,355,2.0,9.0,83,0.00,,---,0.00,VWS V14.01,2013-02-23 22:50:00,
2013-02-23 17:55:00,32.8,28.2,30.06,NNE,14,6.0,9.0,83,0.00,,---,0.00,VWS V14.01,2013-02-23 22:55:00,
2013-02-23 18:00:00,32.8,28.2,30.06,WNW,292,2.0,9.0,83,0.00,,---,0.00,VWS V14.01,2013-02-23 23:00:00,
2013-02-23 18:05:00,32.7,28.1,30.06,North,351,3.0,4.0,83,0.00,,---,0.00,VWS V14.01,2013-02-23 23:05:00,
2013-02-23 18:10:00,32.7,28.1,30.06,NNW,346,2.0,8.0,83,0.00,,---,0.00,VWS V14.01,2013-02-23 23:10:00,
2013-02-23 18:15:00,32.7,28.1,30.06,NW,313,1.0,8.0,83,0.00,,---,0.00,VWS V14.01,2013-02-23 23:15:00,
2013-02-23 18:20:00,32.7,28.1,30.06,SE,134,2.0,8.0,83,0.00,,---,0.00,VWS V14.01,2013-02-23 23:20:00,
2013-02-23 18:25:00,32.7,28.1,30.06,North,360,1.0,8.0,83,0.00,,---,0.00,VWS V14.01,2013-02-23 23:25:00,
2013-02-23 18:30:00,32.7,28.1,30.06,ENE,77,0.0,8.0,83,0.00,,---,0.00,VWS V14.01,2013-02-23 23:30:00,
2013-02-23 18:35:00,32.7,28.1,30.06,East,93,0.0,1.0,83,0.00,,---,0.00,VWS V14.01,2013-02-23 23:35:00,
2013-02-23 18:40:00,32.6,28.0,30.06,North,355,5.0,8.0,83,0.00,,---,0.00,VWS V14.01,2013-02-23 23:40:00,
2013-02-23 18:45:00,32.5,27.9,30.06,North,351,1.0,8.0,83,0.00,,---,0.00,VWS V14.01,2013-02-23 23:45:00,
2013-02-23 18:50:00,32.6,28.0,30.06,NW,316,1.0,8.0,83,0.00,,---,0.00,VWS V14.01,2013-02-23 23:50:00,
2013-02-23 18:55:00,32.5,27.9,30.06,ENE,58,1.0,8.0,83,0.00,,---,0.00,VWS V14.01,2013-02-23 23:55:00,
2013-02-23 19:00:00,32.5,27.9,30.06,East,94,0.0,8.0,83,0.00,,---,0.00,VWS V14.01,2013-02-24 00:00:00,
2013-02-23 19:05:00,32.4,27.8,30.06,NNW,346,2.0,3.0,83,0.00,,---,0.00,VWS V14.01,2013-02-24 00:05:00,
2013-02-23 19:10:00,32.4,27.8,30.05,NNE,30,1.0,6.0,83,0.00,,---,0.00,VWS V14.01,2013-02-24 00:10:00,
2013-02-23 19:15:00,32.4,27.8,30.05,NNW,333,0.0,6.0,83,0.00,,---,0.00,VWS V14.01,2013-02-24 00:15:00,
2013-02-23 19:20:00,32.3,27.7,30.05,ESE,107,1.0,6.0,83,0.00,,---,0.00,VWS V14.01,2013-02-24 00:20:00,
2013-02-23 19:25:00,32.3,27.7,30.05,NNE,17,1.0,8.0,83,0.00,,---,0.00,VWS V14.01,2013-02-24 00:25:00,
2013-02-23 19:30:00,32.3,27.7,30.05,NW,322,1.0,8.0,83,0.00,,---,0.00,VWS V14.01,2013-02-24 00:30:00,
2013-02-23 19:35:00,32.3,27.7,30.04,NNW,329,3.0,5.0,83,0.00,,---,0.00,VWS V14.01,2013-02-24 00:35:00,
2013-02-23 19:40:00,32.3,27.7,30.05,NNW,332,1.0,6.0,83,0.00,,---,0.00,VWS V14.01,2013-02-24 00:40:00,
2013-02-23 19:45:00,32.2,27.6,30.05,NE,47,2.0,12.0,83,0.00,,---,0.00,VWS V14.01,2013-02-24 00:45:00,
2013-02-23 19:50:00,32.2,27.6,30.05,NE,43,3.0,12.0,83,0.00,,---,0.00,VWS V14.01,2013-02-24 00:50:00,
2013-02-23 19:55:00,32.2,27.3,30.04,NNW,343,4.0,12.0,82,0.00,,---,0.00,VWS V14.01,2013-02-24 00:55:00,
2013-02-23 20:00:00,32.2,27.3,30.04,West,261,2.0,12.0,82,0.00,,---,0.00,VWS V14.01,2013-02-24 01:00:00,
2013-02-23 20:05:00,32.2,27.6,30.04,ENE,64,2.0,2.0,83,0.00,,---,0.00,VWS V14.01,2013-02-24 01:05:00,
2013-02-23 20:10:00,32.1,27.5,30.04,NNW,333,5.0,5.0,83,0.00,,---,0.00,VWS V14.01,2013-02-24 01:10:00,
2013-02-23 20:15:00,32.2,27.9,30.04,ENE,78,2.0,5.0,84,0.00,,---,0.00,VWS V14.01,2013-02-24 01:15:00,
2013-02-23 20:20:00,32.1,27.8,30.04,ENE,74,2.0,5.0,84,0.00,,---,0.00,VWS V14.01,2013-02-24 01:20:00,
2013-02-23 20:25:00,32.2,27.9,30.03,North,355,1.0,5.0,84,0.00,,---,0.00,VWS V14.01,2013-02-24 01:25:00,
2013-02-23 20:30:00,32.2,27.6,30.04,North,9,4.0,7.0,83,0.00,,---,0.00,VWS V14.01,2013-02-24 01:30:00,
2013-02-23 20:35:00,32.2,27.6,30.04,NNW,348,0.0,0.0,83,0.00,,---,0.00,VWS V14.01,2013-02-24 01:35:00,
2013-02-23 20:40:00,32.3,27.7,30.04,North,5,1.0,4.0,83,0.00,,---,0.00,VWS V14.01,2013-02-24 01:40:00,
2013-02-23 20:45:00,32.2,27.3,30.03,NNW,338,1.0,4.0,82,0.00,,---,0.00,VWS V14.01,2013-02-24 01:45:00,
2013-02-23 20:50:00,32.2,27.3,30.03,NW,313,2.0,7.0,82,0.00,,---,0.00,VWS V14.01,2013-02-24 01:50:00,
2013-02-23 20:55:00,32.2,27.0,30.02,North,9,0.0,7.0,81,0.00,,---,0.00,VWS V14.01,2013-02-24 01:55:00,
2013-02-23 21:00:00,32.2,27.0,30.02,NNW,348,1.0,7.0,81,0.00,,---,0.00,VWS V14.01,2013-02-24 02:00:00,
2013-02-23 21:05:00,32.3,27.1,30.02,North,5,2.0,2.0,81,0.00,,---,0.00,VWS V14.01,2013-02-24 02:05:00,
2013-02-23 21:10:00,32.3,27.1,30.02,NNE,30,0.0,7.0,81,0.00,,---,0.00,VWS V14.01,2013-02-24 02:10:00,
2013-02-23 21:15:00,32.3,27.1,30.02,ESE,107,1.0,7.0,81,0.00,,---,0.00,VWS V14.01,2013-02-24 02:15:00,
2013-02-23 21:20:00,32.3,27.1,30.02,NE,51,4.0,7.0,81,0.00,,---,0.00,VWS V14.01,2013-02-24 02:20:00,
2013-02-23 21:25:00,32.3,27.1,30.01,NNW,331,1.0,7.0,81,0.00,,---,0.00,VWS V14.01,2013-02-24 02:25:00,
2013-02-23 21:30:00,32.4,26.9,30.01,North,351,0.0,7.0,80,0.00,,---,0.00,VWS V14.01,2013-02-24 02:30:00,
2013-02-23 21:35:00,32.4,26.9,30.01,NW,323,3.0,3.0,80,0.00,,---,0.00,VWS V14.01,2013-02-24 02:35:00,
2013-02-23 21:40:00,32.4,26.9,30.01,North,360,1.0,3.0,80,0.00,,---,0.00,VWS V14.01,2013-02-24 02:40:00,
2013-02-23 21:45:00,32.4,26.9,30.00,WNW,302,2.0,3.0,80,0.00,,---,0.00,VWS V14.01,2013-02-24 02:45:00,
2013-02-23 21:50:00,32.3,26.8,30.00,WSW,256,2.0,7.0,80,0.00,,---,0.00,VWS V14.01,2013-02-24 02:50:00,
2013-02-23 21:55:00,32.3,27.1,30.00,WNW,292,4.0,7.0,81,0.00,,---,0.00,VWS V14.01,2013-02-24 02:55:00,
2013-02-23 22:00:00,32.3,27.1,29.99,West,267,1.0,9.0,81,0.00,,---,0.00,VWS V14.01,2013-02-24 03:00:00,
2013-02-23 22:05:00,32.2,27.3,29.99,North,355,3.0,5.0,82,0.00,,---,0.00,VWS V14.01,2013-02-24 03:05:00,
2013-02-23 22:10:00,32.2,27.3,29.99,NW,304,3.0,5.0,82,0.00,,---,0.00,VWS V14.01,2013-02-24 03:10:00,
2013-02-23 22:15:00,31.9,27.6,29.99,NNE,23,0.0,6.0,84,0.00,,---,0.00,VWS V14.01,2013-02-24 03:15:00,
2013-02-23 22:20:00,31.7,27.7,29.98,NE,43,3.0,6.0,85,0.00,,---,0.00,VWS V14.01,2013-02-24 03:20:00,
2013-02-23 22:25:00,31.5,27.8,29.98,NNW,344,0.0,6.0,86,0.00,,---,0.00,VWS V14.01,2013-02-24 03:25:00,
2013-02-23 22:30:00,31.4,28.0,29.98,WNW,287,1.0,6.0,87,0.00,,---,0.00,VWS V14.01,2013-02-24 03:30:00,
2013-02-23 22:35:00,31.3,27.9,29.98,North,5,0.0,0.0,87,0.00,,---,0.00,VWS V14.01,2013-02-24 03:35:00,
2013-02-23 22:40:00,31.2,28.1,29.98,NNW,340,0.0,5.0,88,0.00,,---,0.00,VWS V14.01,2013-02-24 03:40:00,
2013-02-23 22:45:00,31.1,28.0,29.98,WNW,296,0.0,5.0,88,0.00,,---,0.00,VWS V14.01,2013-02-24 03:45:00,
2013-02-23 22:50:00,31.0,28.1,29.97,NW,315,4.0,6.0,89,0.00,,---,0.00,VWS V14.01,2013-02-24 03:50:00,
2013-02-23 22:55:00,30.9,28.0,29.97,West,275,3.0,8.0,89,0.00,,---,0.00,VWS V14.01,2013-02-24 03:55:00,
2013-02-23 23:00:00,30.9,28.0,29.97,NNE,26,0.0,8.0,89,0.00,,---,0.00,VWS V14.01,2013-02-24 04:00:00,
2013-02-23 23:05:00,30.8,28.2,29.97,NW,319,4.0,4.0,90,0.00,,---,0.00,VWS V14.01,2013-02-24 04:05:00,
2013-02-23 23:10:00,30.7,28.1,29.97,NW,320,2.0,5.0,90,0.00,,---,0.00,VWS V14.01,2013-02-24 04:10:00,
2013-02-23 23:15:00,30.7,28.1,29.98,NNW,335,1.0,6.0,90,0.00,,---,0.00,VWS V14.01,2013-02-24 04:15:00,
2013-02-23 23:20:00,30.6,28.0,29.97,NW,306,1.0,6.0,90,0.00,,---,0.00,VWS V14.01,2013-02-24 04:20:00,
2013-02-23 23:25:00,30.5,27.9,29.97,NW,311,3.0,6.0,90,0.00,,---,0.00,VWS V14.01,2013-02-24 04:25:00,
2013-02-23 23:30:00,30.4,28.1,29.97,North,360,3.0,6.0,91,0.00,,---,0.00,VWS V14.01,2013-02-24 04:30:00,
2013-02-23 23:35:00,30.4,28.1,29.97,NNW,327,1.0,1.0,91,0.00,,---,0.00,VWS V14.01,2013-02-24 04:35:00,
2013-02-23 23:40:00,30.4,28.1,29.97,West,281,2.0,5.0,91,0.00,,---,0.00,VWS V14.01,2013-02-24 04:40:00,
2013-02-23 23:45:00,30.3,28.0,29.96,North,355,0.0,5.0,91,0.00,,---,0.00,VWS V14.01,2013-02-24 04:45:00,
2013-02-23 23:50:00,30.2,27.9,29.96,NNE,32,2.0,6.0,91,0.00,,---,0.00,VWS V14.01,2013-02-24 04:50:00,
2013-02-23 23:55:00,30.2,28.2,29.96,North,360,0.0,6.0,92,0.00,,---,0.00,VWS V14.01,2013-02-24 04:55:00,